createdAt,value
2023-01-20T00:04:48.265Z,101080.91
2023-01-20T00:09:40.038Z,101103.00
2023-01-20T00:14:33.292Z,101082.19
2023-01-20T00:19:24.275Z,101089.78
2023-01-20T00:24:19.714Z,101083.72
2023-01-20T00:29:13.425Z,101089.75
2023-01-20T00:34:05.575Z,101100.31
2023-01-20T00:38:57.225Z,101103.06
2023-01-20T00:43:53.833Z,101104.69
2023-01-20T00:48:47.385Z,101113.41
2023-01-20T00:53:38.128Z,101113.44
2023-01-20T00:58:33.061Z,101107.25
2023-01-20T01:03:28.333Z,101096.34
2023-01-20T01:08:21.209Z,101124.91
2023-01-20T01:13:15.778Z,101117.41
2023-01-20T01:18:07.081Z,101131.81
2023-01-20T01:23:01.021Z,101128.91
2023-01-20T01:27:52.627Z,101135.22
2023-01-20T01:32:44.011Z,101128.50
2023-01-20T01:37:37.960Z,101136.81
2023-01-20T01:42:31.728Z,101146.28
2023-01-20T01:47:23.203Z,101138.56
2023-01-20T01:52:21.094Z,101155.44
2023-01-20T01:57:11.900Z,101145.84
2023-01-20T02:02:05.141Z,101155.22
2023-01-20T02:06:58.935Z,101154.94
2023-01-20T02:12:08.889Z,101161.94
2023-01-20T02:17:14.635Z,101174.59
2023-01-20T02:22:21.575Z,101163.81
2023-01-20T02:27:20.257Z,101158.75
2023-01-20T02:32:18.269Z,101153.03
2023-01-20T02:37:16.225Z,101151.97
2023-01-20T02:42:12.595Z,101165.78
2023-01-20T02:47:07.170Z,101163.16
2023-01-20T02:52:06.779Z,101162.28
2023-01-20T02:56:59.063Z,101155.22
2023-01-20T03:01:54.192Z,101153.22
2023-01-20T03:06:52.887Z,101148.84
2023-01-20T03:11:54.047Z,101157.34
2023-01-20T03:16:48.634Z,101157.34
2023-01-20T03:21:40.120Z,101155.63
2023-01-20T03:26:31.480Z,101140.03
2023-01-20T03:31:28.505Z,101153.03
2023-01-20T03:36:23.483Z,101154.06
2023-01-20T03:41:21.123Z,101153.13
2023-01-20T03:46:19.665Z,101160.22
2023-01-20T03:51:22.037Z,101155.13
2023-01-20T03:56:22.095Z,101157.78
2023-01-20T04:01:18.614Z,101150.16
2023-01-20T04:06:17.187Z,101154.53
2023-01-20T04:11:11.501Z,101159.06
2023-01-20T04:16:04.687Z,101160.72
2023-01-20T04:21:01.685Z,101175.91
2023-01-20T04:25:58.056Z,101170.03
2023-01-20T04:30:49.689Z,101169.03
2023-01-20T04:35:44.416Z,101182.69
2023-01-20T04:40:37.548Z,101172.41
2023-01-20T04:45:38.446Z,101196.28
2023-01-20T04:50:28.466Z,101188.69
2023-01-20T04:55:20.647Z,101192.75
2023-01-20T05:00:24.914Z,101208.19
2023-01-20T05:05:18.182Z,101201.44
2023-01-20T05:10:12.999Z,101191.47
2023-01-20T05:15:03.351Z,101191.47
2023-01-20T05:19:53.229Z,101201.91
2023-01-20T05:24:45.707Z,101189.59
2023-01-20T05:29:35.613Z,101189.59
2023-01-20T05:34:25.707Z,101198.66
2023-01-20T05:39:18.257Z,101202.03
2023-01-20T05:44:14.978Z,101210.41
2023-01-20T05:49:05.616Z,101216.31
2023-01-20T05:54:01.353Z,101223.03
2023-01-20T05:58:53.718Z,101216.22
2023-01-20T06:03:46.422Z,101214.22
2023-01-20T06:09:05.836Z,101221.28
2023-01-20T06:13:56.310Z,101211.72
2023-01-20T06:18:48.791Z,101208.25
2023-01-20T06:23:58.141Z,101212.81
2023-01-20T06:28:52.259Z,101219.59
2023-01-20T06:33:45.752Z,101210.19
2023-01-20T06:38:50.802Z,101219.81
2023-01-20T06:43:49.740Z,101214.72
2023-01-20T06:48:46.208Z,101216.56
2023-01-20T06:53:49.546Z,101212.16
2023-01-20T06:58:47.038Z,101215.50
2023-01-20T07:03:37.096Z,101215.50
2023-01-20T07:08:33.091Z,101230.13
2023-01-20T07:13:25.948Z,101223.81
2023-01-20T07:18:17.292Z,101233.22
2023-01-20T07:23:09.449Z,101233.63
2023-01-20T07:27:59.368Z,101228.56
2023-01-20T07:32:52.153Z,101239.56
2023-01-20T07:37:43.553Z,101238.81
2023-01-20T07:42:37.991Z,101240.66
2023-01-20T07:47:31.714Z,101241.53
2023-01-20T07:52:25.056Z,101251.00
2023-01-20T07:57:14.918Z,101244.00
2023-01-20T08:02:11.477Z,101261.00
2023-01-20T08:07:04.229Z,101254.38
2023-01-20T08:11:57.036Z,101255.50
2023-01-20T08:16:46.935Z,101265.97
2023-01-20T08:21:37.282Z,101265.19
2023-01-20T08:26:28.387Z,101274.03
2023-01-20T08:31:23.473Z,101278.16
2023-01-20T08:36:16.421Z,101279.09
2023-01-20T08:41:10.131Z,101291.78
2023-01-20T08:46:03.627Z,101281.19
2023-01-20T08:50:57.205Z,101300.31
2023-01-20T08:55:48.566Z,101303.53
2023-01-20T09:00:38.391Z,101323.75
2023-01-20T09:05:28.398Z,101317.81
2023-01-20T09:10:25.877Z,101313.81
2023-01-20T09:15:20.790Z,101309.50
2023-01-20T09:20:14.955Z,101314.50
2023-01-20T09:25:19.401Z,101309.59
2023-01-20T09:30:14.309Z,101307.06
2023-01-20T09:35:05.487Z,101324.88
2023-01-20T09:40:07.867Z,101331.25
2023-01-20T09:45:08.881Z,101353.69
2023-01-20T09:50:45.665Z,101334.09
2023-01-20T09:55:46.122Z,101324.88
2023-01-20T10:00:41.971Z,101324.22
2023-01-20T10:05:40.645Z,101333.88
2023-01-20T10:10:34.965Z,101355.50
2023-01-20T10:15:30.003Z,101369.28
2023-01-20T10:20:29.806Z,101363.44
2023-01-20T10:25:29.471Z,101379.34
2023-01-20T10:30:22.223Z,101371.75
2023-01-20T10:35:18.552Z,101374.31
2023-01-20T10:40:21.150Z,101364.94
2023-01-20T10:45:25.403Z,101354.00
2023-01-20T10:50:31.549Z,101355.78
2023-01-20T10:55:48.189Z,101354.53
2023-01-20T11:00:46.507Z,101349.53
2023-01-20T11:05:43.235Z,101359.72
2023-01-20T11:10:39.603Z,101351.94
2023-01-20T11:15:34.329Z,101342.91
2023-01-20T11:20:29.573Z,101363.19
2023-01-20T11:25:38.772Z,101330.25
2023-01-20T11:30:35.906Z,101344.28
2023-01-20T11:35:37.606Z,101362.56
2023-01-20T11:40:51.769Z,101361.81
2023-01-20T11:45:49.340Z,101357.56
2023-01-20T11:50:54.442Z,101301.06
2023-01-20T11:55:52.675Z,101367.41
2023-01-20T12:00:48.326Z,101382.84
2023-01-20T12:05:54.944Z,101364.84
2023-01-20T12:10:55.291Z,101380.41
2023-01-20T12:15:55.604Z,101363.19
2023-01-20T12:20:58.411Z,101374.47
2023-01-20T12:26:01.170Z,101368.72
2023-01-20T12:31:15.055Z,101371.25
2023-01-20T12:36:36.116Z,101367.50
2023-01-20T12:41:51.747Z,101356.69
2023-01-20T12:46:49.527Z,101368.53
2023-01-20T12:51:57.626Z,101401.00
2023-01-20T12:57:06.746Z,101405.06
2023-01-20T13:02:20.763Z,101401.66
2023-01-20T13:07:46.501Z,101406.13
2023-01-20T13:12:51.499Z,101406.72
2023-01-20T13:18:10.931Z,101370.03
2023-01-20T13:23:10.758Z,101405.69
2023-01-20T13:28:10.160Z,101396.47
2023-01-20T13:33:17.236Z,101405.34
2023-01-20T13:38:37.271Z,101396.34
2023-01-20T13:44:01.593Z,101416.81
2023-01-20T13:49:23.161Z,101413.13
2023-01-20T13:54:50.727Z,101419.09
2023-01-20T13:59:43.565Z,101414.69
2023-01-20T14:04:34.208Z,101390.91
2023-01-20T14:09:30.966Z,101385.47
2023-01-20T14:14:36.960Z,101416.41
2023-01-20T14:19:32.526Z,101418.22
2023-01-20T14:24:38.081Z,101402.31
2023-01-20T14:29:34.547Z,101422.94
2023-01-20T14:34:32.811Z,101414.78
2023-01-20T14:39:26.822Z,101440.66
2023-01-20T14:44:22.331Z,101460.19
2023-01-20T14:49:30.311Z,101469.94
2023-01-20T14:54:42.001Z,101481.59
2023-01-20T14:59:36.707Z,101463.94
2023-01-20T15:04:38.199Z,101511.03
2023-01-20T15:09:30.205Z,101525.38
2023-01-20T15:14:21.591Z,101515.53
2023-01-20T15:19:36.607Z,101539.84
2023-01-20T15:24:34.655Z,101552.56
2023-01-20T15:29:28.467Z,101564.31
2023-01-20T15:34:21.068Z,101568.50
2023-01-20T15:39:14.185Z,101562.91
2023-01-20T15:44:09.299Z,101585.47
2023-01-20T15:48:59.052Z,101593.09
2023-01-20T15:53:54.685Z,101621.81
2023-01-20T15:58:48.935Z,101635.41
2023-01-20T16:03:50.403Z,101648.97
2023-01-20T16:08:50.239Z,101673.19
2023-01-20T16:13:42.100Z,101684.63
2023-01-20T16:18:33.271Z,101689.38
2023-01-20T16:23:29.131Z,101717.88
2023-01-20T16:28:35.577Z,101728.81
2023-01-20T16:33:30.672Z,101747.41
2023-01-20T16:38:32.856Z,101762.41
2023-01-20T16:43:26.585Z,101785.63
2023-01-20T16:48:23.896Z,101774.34
2023-01-20T16:53:15.344Z,101803.81
2023-01-20T16:58:19.170Z,101802.84
2023-01-20T17:03:13.642Z,101782.44
2023-01-20T17:08:04.224Z,101853.00
2023-01-20T17:12:57.490Z,101839.19
2023-01-20T17:17:54.808Z,101854.22
2023-01-20T17:22:44.805Z,101873.84
2023-01-20T17:27:39.668Z,101885.13
2023-01-20T17:32:42.957Z,101889.41
2023-01-20T17:37:36.766Z,101909.22
2023-01-20T17:42:28.551Z,101918.75
2023-01-20T17:47:18.634Z,101940.94
2023-01-20T17:52:08.790Z,101941.66
2023-01-20T17:57:01.558Z,101954.59
2023-01-20T18:02:05.705Z,101968.59
2023-01-20T18:06:55.850Z,101977.50
2023-01-20T18:11:49.544Z,101968.22
2023-01-20T18:17:02.216Z,101998.72
2023-01-20T18:21:53.360Z,102012.94
2023-01-20T18:26:47.400Z,102033.63
2023-01-20T18:31:45.826Z,102037.97
2023-01-20T18:36:47.448Z,102055.03
2023-01-20T18:41:41.969Z,102073.19
2023-01-20T18:46:44.255Z,102083.31
2023-01-20T18:51:39.428Z,102104.66
2023-01-20T18:56:30.099Z,102096.81
2023-01-20T19:01:24.095Z,102113.94
2023-01-20T19:06:28.172Z,102131.47
2023-01-20T19:11:29.045Z,102131.28
2023-01-20T19:16:23.668Z,102144.28
2023-01-20T19:21:21.960Z,102155.47
2023-01-20T19:26:18.840Z,102131.81
2023-01-20T19:31:17.152Z,102169.66
2023-01-20T19:36:15.028Z,102190.28
2023-01-20T19:41:12.123Z,102189.28
2023-01-20T19:46:05.138Z,102201.03
2023-01-20T19:51:04.949Z,102211.66
2023-01-20T19:56:09.929Z,102219.78
2023-01-20T20:01:18.649Z,102240.53
2023-01-20T20:06:26.641Z,102236.31
2023-01-20T20:11:18.506Z,102252.22
2023-01-20T20:16:13.486Z,102275.09
2023-01-20T20:21:21.687Z,102271.88
2023-01-20T20:26:16.146Z,102278.25
2023-01-20T20:31:14.164Z,102277.97
2023-01-20T20:36:20.911Z,102308.78
2023-01-20T20:41:19.589Z,102330.13
2023-01-20T20:46:24.629Z,102330.06
2023-01-20T20:51:19.721Z,102347.22
2023-01-20T20:56:14.539Z,102330.28
2023-01-20T21:01:09.975Z,102366.06
2023-01-20T21:06:07.837Z,102367.56
2023-01-20T21:11:05.885Z,102386.47
2023-01-20T21:16:10.978Z,102388.22
2023-01-20T21:21:06.463Z,102409.69
2023-01-20T21:25:56.546Z,102405.59
2023-01-20T21:30:47.490Z,102408.63
2023-01-20T21:35:40.487Z,102421.41
2023-01-20T21:40:34.867Z,102422.56
2023-01-20T21:45:25.042Z,102435.84
2023-01-20T21:50:28.533Z,102450.25
2023-01-20T21:55:21.748Z,102472.91
2023-01-20T22:00:20.329Z,102480.56
2023-01-20T22:05:14.453Z,102479.03
2023-01-20T22:10:09.938Z,102489.38
2023-01-20T22:15:03.923Z,102512.13
2023-01-20T22:19:56.579Z,102512.25
2023-01-20T22:24:47.820Z,102530.16
2023-01-20T22:29:38.962Z,102540.09
2023-01-20T22:34:30.484Z,102536.50
2023-01-20T22:39:32.243Z,102571.66
2023-01-20T22:44:26.006Z,102583.88
2023-01-20T22:49:22.423Z,102588.50
2023-01-20T22:54:16.484Z,102583.69
2023-01-20T22:59:14.797Z,102581.09
2023-01-20T23:04:10.675Z,102575.84
2023-01-20T23:09:01.677Z,102598.53
2023-01-20T23:13:52.260Z,102609.81
2023-01-20T23:18:46.492Z,102613.47
2023-01-20T23:23:37.925Z,102623.97
2023-01-20T23:28:29.802Z,102625.25
2023-01-20T23:33:29.569Z,102637.75
2023-01-20T23:38:29.291Z,102641.25
2023-01-20T23:43:30.952Z,102615.84
2023-01-20T23:48:20.989Z,102641.97
2023-01-20T23:53:16.434Z,102659.44
2023-01-20T23:58:10.343Z,102652.59
